Observation data for Floydada on 08/06/2020      Previous  Date       Current Mesonet Observations  Soil Data  Daily Summary Page  Observations in Plain Language
KFLS 060500Z 09013KT 24/17 A3002 RMK A01 T02410172  RH  067%=      5-min Rain = 0
KFLS 060505Z 09013G18KT 24/17 A3002 RMK A01 T02400173  RH  068%=      5-min Rain = 0
KFLS 060510Z 09012KT 24/17 A3002 RMK A01 T02380173  RH  069%=      5-min Rain = 0
KFLS 060515Z 09013G18KT 24/17 A3002 RMK A01 T02370173  RH  069%=      5-min Rain = 0
KFLS 060520Z 09012KT 24/17 A3002 RMK A01 T02350173  RH  070%=      5-min Rain = 0
KFLS 060525Z 09012KT 23/17 A3002 RMK A01 T02340174  RH  071%=      5-min Rain = 0
KFLS 060530Z 09013KT 23/17 A3002 RMK A01 T02320174  RH  072%=      5-min Rain = 0
KFLS 060535Z 09013KT 23/18 A3002 RMK A01 T02310175  RH  072%=      5-min Rain = 0
KFLS 060540Z 09012KT 23/18 A3002 RMK A01 T02300175  RH  073%=      5-min Rain = 0
KFLS 060545Z 09011KT 23/18 A3002 RMK A01 T02290175  RH  073%=      5-min Rain = 0
KFLS 060550Z 09011KT 23/18 A3002 RMK A01 T02290175  RH  073%=      5-min Rain = 0
KFLS 060555Z 09010KT 23/18 A3002 RMK A01 T02290175  RH  074%=      5-min Rain = 0
KFLS 060600Z 09009KT 23/18 A3002 RMK A01 T02280175  RH  074%=      5-min Rain = 0
KFLS 060605Z 09011KT 23/18 A3002 RMK A01 T02260175  RH  075%=      5-min Rain = 0
KFLS 060610Z 09010KT 23/18 A3002 RMK A01 T02260175  RH  075%=      5-min Rain = 0
KFLS 060615Z 09009KT 23/18 A3002 RMK A01 T02250175  RH  075%=      5-min Rain = 0
KFLS 060620Z 09007KT 22/18 A3002 RMK A01 T02240175  RH  076%=      5-min Rain = 0
KFLS 060625Z 09006KT 22/18 A3002 RMK A01 T02230175  RH  076%=      5-min Rain = 0
KFLS 060630Z 09007KT 22/18 A3002 RMK A01 T02220176  RH  077%=      5-min Rain = 0
KFLS 060635Z 09008KT 22/18 A3002 RMK A01 T02220176  RH  077%=      5-min Rain = 0
KFLS 060640Z 09007KT 22/18 A3002 RMK A01 T02220176  RH  077%=      5-min Rain = 0
KFLS 060645Z 09008KT 22/18 A3002 RMK A01 T02210176  RH  078%=      5-min Rain = 0
KFLS 060650Z 09009KT 22/18 A3001 RMK A01 T02210176  RH  078%=      5-min Rain = 0
KFLS 060655Z 09008KT 22/18 A3001 RMK A01 T02210177  RH  078%=      5-min Rain = 0
KFLS 060700Z 09007KT 22/18 A3001 RMK A01 T02200176  RH  078%=      5-min Rain = 0
KFLS 060705Z 09007KT 22/18 A3001 RMK A01 T02190177  RH  079%=      5-min Rain = 0
KFLS 060710Z 09007KT 22/18 A3001 RMK A01 T02180177  RH  079%=      5-min Rain = 0
KFLS 060715Z 09007KT 22/18 A3001 RMK A01 T02170177  RH  080%=      5-min Rain = 0
KFLS 060720Z 09007KT 22/18 A3001 RMK A01 T02170177  RH  080%=      5-min Rain = 0
KFLS 060725Z 09007KT 22/18 A3001 RMK A01 T02160177  RH  080%=      5-min Rain = 0
KFLS 060730Z 09007KT 22/18 A3001 RMK A01 T02150177  RH  081%=      5-min Rain = 0
KFLS 060735Z 09008KT 22/18 A3001 RMK A01 T02150178  RH  081%=      5-min Rain = 0
KFLS 060740Z 09007KT 22/18 A3001 RMK A01 T02150178  RH  081%=      5-min Rain = 0
KFLS 060745Z 10008KT 22/18 A3001 RMK A01 T02150178  RH  081%=      5-min Rain = 0
KFLS 060750Z 10007KT 22/18 A3001 RMK A01 T02150178  RH  082%=      5-min Rain = 0
KFLS 060755Z 10007KT 21/18 A3001 RMK A01 T02130178  RH  082%=      5-min Rain = 0
KFLS 060800Z 10007KT 21/18 A3001 RMK A01 T02130178  RH  082%=      5-min Rain = 0
KFLS 060805Z 11007KT 21/18 A3001 RMK A01 T02130178  RH  083%=      5-min Rain = 0
KFLS 060810Z 11008KT 21/18 A30 RMK A01 T02130179  RH  083%=      5-min Rain = 0
KFLS 060815Z 11009KT 21/18 A30 RMK A01 T02130179  RH  083%=      5-min Rain = 0
KFLS 060820Z 11010KT 21/18 A30 RMK A01 T02120179  RH  083%=      5-min Rain = 0
KFLS 060825Z 11010KT 21/18 A30 RMK A01 T02110179  RH  084%=      5-min Rain = 0
KFLS 060830Z 11010KT 21/18 A2999 RMK A01 T02110179  RH  084%=      5-min Rain = 0
KFLS 060835Z 11008KT 21/18 A30 RMK A01 T02100178  RH  084%=      5-min Rain = 0
KFLS 060840Z 11007KT 21/18 A30 RMK A01 T02080177  RH  085%=      5-min Rain = 0
KFLS 060845Z 11007KT 21/18 A30 RMK A01 T02060177  RH  086%=      5-min Rain = 0
KFLS 060850Z 11007KT 21/18 A2999 RMK A01 T02050177  RH  086%=      5-min Rain = 0
KFLS 060855Z 10007KT 20/18 A30 RMK A01 T02040177  RH  087%=      5-min Rain = 0
KFLS 060900Z 13005KT 20/18 A30 RMK A01 T02030177  RH  087%=      5-min Rain = 0
KFLS 060905Z 12006KT 20/18 A30 RMK A01 T02020176  RH  087%=      5-min Rain = 0
KFLS 060910Z 12006KT 20/18 A30 RMK A01 T02010176  RH  087%=      5-min Rain = 0
KFLS 060915Z 13006KT 20/18 A30 RMK A01 T02020177  RH  088%=      5-min Rain = 0
KFLS 060920Z 13007KT 20/18 A30 RMK A01 T02030178  RH  087%=      5-min Rain = 0
KFLS 060925Z 14007KT 20/18 A30 RMK A01 T02040178  RH  087%=      5-min Rain = 0
KFLS 060930Z 14008KT 20/18 A30 RMK A01 T02040178  RH  087%=      5-min Rain = 0
KFLS 060935Z 13008KT 20/18 A30 RMK A01 T02040178  RH  088%=      5-min Rain = 0
KFLS 060940Z 13007KT 20/18 A30 RMK A01 T02030178  RH  088%=      5-min Rain = 0
KFLS 060945Z 13006KT 20/18 A30 RMK A01 T02020177  RH  088%=      5-min Rain = 0
KFLS 060950Z 11005KT 20/18 A3001 RMK A01 T02000176  RH  088%=      5-min Rain = 0
KFLS 060955Z 09005KT 20/18 A3001 RMK A01 T01970175  RH  089%=      5-min Rain = 0
KFLS 061000Z 08006KT 20/18 A3001 RMK A01 T01950175  RH  090%=      5-min Rain = 0
KFLS 061005Z 08006KT 20/18 A3001 RMK A01 T01950175  RH  091%=      5-min Rain = 0
KFLS 061010Z 09005KT 20/18 A3001 RMK A01 T01950176  RH  091%=      5-min Rain = 0
KFLS 061015Z 11005KT 20/18 A3001 RMK A01 T01960176  RH  091%=      5-min Rain = 0
KFLS 061020Z 11005KT 20/18 A30 RMK A01 T01960176  RH  090%=      5-min Rain = 0
KFLS 061025Z 11005KT 20/18 A30 RMK A01 T01960175  RH  090%=      5-min Rain = 0
KFLS 061030Z 10005KT 20/18 A30 RMK A01 T01950175  RH  090%=      5-min Rain = 0
KFLS 061035Z 09005KT 20/18 A3001 RMK A01 T01950175  RH  091%=      5-min Rain = 0
KFLS 061040Z 09005KT 20/18 A3001 RMK A01 T01950176  RH  091%=      5-min Rain = 0
KFLS 061045Z 10005KT 20/18 A3001 RMK A01 T01950176  RH  091%=      5-min Rain = 0
KFLS 061050Z 11005KT 20/18 A30 RMK A01 T01950176  RH  091%=      5-min Rain = 0
KFLS 061055Z 13005KT 20/18 A30 RMK A01 T01960177  RH  091%=      5-min Rain = 0
KFLS 061100Z 14005KT 20/18 A30 RMK A01 T01970177  RH  091%=      5-min Rain = 0
KFLS 061105Z 15004KT 20/18 A30 RMK A01 T01980177  RH  090%=      5-min Rain = 0
KFLS 061110Z 15003KT 20/18 A30 RMK A01 T01990177  RH  089%=      5-min Rain = 0
KFLS 061115Z 15003KT 20/18 A3001 RMK A01 T02000177  RH  089%=      5-min Rain = 0
KFLS 061120Z 15003KT 20/18 A3001 RMK A01 T02010176  RH  088%=      5-min Rain = 0
KFLS 061125Z 15004KT 20/18 A3001 RMK A01 T02010175  RH  087%=      5-min Rain = 0
KFLS 061130Z 15005KT 20/17 A3001 RMK A01 T01990174  RH  087%=      5-min Rain = 0
KFLS 061135Z 16005KT 20/17 A3001 RMK A01 T01990174  RH  087%=      5-min Rain = 0
KFLS 061140Z 19005KT 20/18 A3001 RMK A01 T02000175  RH  087%=      5-min Rain = 0
KFLS 061145Z 19007KT 20/18 A3001 RMK A01 T02020175  RH  087%=      5-min Rain = 0
KFLS 061150Z 19008KT 21/17 A3001 RMK A01 T02080174  RH  083%=      5-min Rain = 0
KFLS 061155Z 19008KT 21/17 A3001 RMK A01 T02120172  RH  080%=      5-min Rain = 0
KFLS 061200Z 20007KT 22/17 A3002 RMK A01 T02160171  RH  077%=      5-min Rain = 0
KFLS 061205Z 21007KT 22/17 A3002 RMK A01 T02160170  RH  077%=      5-min Rain = 0
KFLS 061210Z 21007KT 22/17 A3002 RMK A01 T02190169  RH  075%=      5-min Rain = 0
KFLS 061215Z 22008KT 22/17 A3002 RMK A01 T02240167  RH  072%=      5-min Rain = 0
KFLS 061220Z 22007KT 23/17 A3002 RMK A01 T02270166  RH  070%=      5-min Rain = 0
KFLS 061225Z 22006KT 23/17 A3002 RMK A01 T02270166  RH  070%=      5-min Rain = 0
KFLS 061230Z 22006KT 23/17 A3002 RMK A01 T02280167  RH  070%=      5-min Rain = 0
KFLS 061235Z 21008KT 23/17 A3002 RMK A01 T02280166  RH  070%=      5-min Rain = 0
KFLS 061240Z 21008KT 23/17 A3002 RMK A01 T02300166  RH  069%=      5-min Rain = 0
KFLS 061245Z 21009KT 23/16 A3002 RMK A01 T02330164  RH  067%=      5-min Rain = 0
KFLS 061250Z 21010KT 24/16 A3002 RMK A01 T02360161  RH  064%=      5-min Rain = 0
KFLS 061255Z 21011KT 24/16 A3002 RMK A01 T02380158  RH  062%=      5-min Rain = 0
KFLS 061300Z 21012KT 24/16 A3002 RMK A01 T02390156  RH  061%=      5-min Rain = 0
KFLS 061305Z 22010KT 24/16 A3002 RMK A01 T02390155  RH  061%=      5-min Rain = 0
KFLS 061310Z 21011KT 24/15 A3002 RMK A01 T02390154  RH  060%=      5-min Rain = 0
KFLS 061315Z 21011KT 24/15 A3002 RMK A01 T02400154  RH  060%=      5-min Rain = 0
KFLS 061320Z 21011KT 24/15 A3002 RMK A01 T02400153  RH  059%=      5-min Rain = 0
KFLS 061325Z 21010KT 24/15 A3002 RMK A01 T02410153  RH  059%=      5-min Rain = 0
KFLS 061330Z 21012KT 25/15 A3002 RMK A01 T02450152  RH  057%=      5-min Rain = 0
KFLS 061335Z 21012KT 25/15 A3002 RMK A01 T02520152  RH  055%=      5-min Rain = 0
KFLS 061340Z 21013G19KT 26/15 A3002 RMK A01 T02590152  RH  053%=      5-min Rain = 0
KFLS 061345Z 21014G21KT 27/15 A3002 RMK A01 T02650151  RH  051%=      5-min Rain = 0
KFLS 061350Z 21016G21KT 27/15 A3002 RMK A01 T02670150  RH  050%=      5-min Rain = 0
KFLS 061355Z 21016G21KT 27/15 A3002 RMK A01 T02690149  RH  049%=      5-min Rain = 0
KFLS 061400Z 21017G22KT 27/15 A3002 RMK A01 T02690149  RH  049%=      5-min Rain = 0
KFLS 061405Z 21017G22KT 27/15 A3002 RMK A01 T02680148  RH  049%=      5-min Rain = 0
KFLS 061410Z 21014G21KT 26/15 A3002 RMK A01 T02620149  RH  051%=      5-min Rain = 0
KFLS 061415Z 21016G21KT 26/15 A3002 RMK A01 T02600149  RH  051%=      5-min Rain = 0
KFLS 061420Z 21017KT 26/15 A3002 RMK A01 T02610150  RH  051%=      5-min Rain = 0
KFLS 061425Z 21015G22KT 27/15 A3003 RMK A01 T02660151  RH  051%=      5-min Rain = 0
KFLS 061430Z 21018G23KT 26/15 A3003 RMK A01 T02640151  RH  051%=      5-min Rain = 0
KFLS 061435Z 21017G22KT 26/15 A3003 RMK A01 T02620151  RH  051%=      5-min Rain = 0
KFLS 061440Z 21017G25KT 26/15 A3003 RMK A01 T02620151  RH  051%=      5-min Rain = 0
KFLS 061445Z 21017G23KT 26/15 A3003 RMK A01 T02620151  RH  052%=      5-min Rain = 0
KFLS 061450Z 21016G22KT 26/15 A3003 RMK A01 T02610152  RH  052%=      5-min Rain = 0
KFLS 061455Z 21016KT 26/15 A3003 RMK A01 T02620152  RH  052%=      5-min Rain = 0
KFLS 061500Z 21016G21KT 26/15 A3003 RMK A01 T02620152  RH  052%=      5-min Rain = 0
KFLS 061505Z 21015G20KT 26/15 A3003 RMK A01 T02630152  RH  052%=      5-min Rain = 0
KFLS 061510Z 21014G20KT 26/15 A3003 RMK A01 T02620153  RH  052%=      5-min Rain = 0
KFLS 061515Z 21015KT 26/15 A3003 RMK A01 T02600153  RH  053%=      5-min Rain = 0
KFLS 061520Z 21014KT 26/15 A3003 RMK A01 T02600153  RH  053%=      5-min Rain = 0
KFLS 061525Z 21014KT 26/15 A3004 RMK A01 T02610153  RH  052%=      5-min Rain = 0
KFLS 061530Z 22014G20KT 26/15 A3004 RMK A01 T02620153  RH  052%=      5-min Rain = 0
KFLS 061535Z 22013G18KT 26/15 A3004 RMK A01 T02630154  RH  052%=      5-min Rain = 0
KFLS 061540Z 22013G18KT 26/16 A3004 RMK A01 T02630155  RH  053%=      5-min Rain = 0
KFLS 061545Z 21013G18KT 26/16 A3004 RMK A01 T02640156  RH  052%=      5-min Rain = 0
KFLS 061550Z 22013G18KT 27/16 A3004 RMK A01 T02670156  RH  052%=      5-min Rain = 0
KFLS 061555Z 21013G18KT 27/16 A3004 RMK A01 T02710157  RH  051%=      5-min Rain = 0
KFLS 061600Z 21012G17KT 28/16 A3004 RMK A01 T02790158  RH  049%=      5-min Rain = 0
KFLS 061605Z 21013G18KT 28/16 A3004 RMK A01 T02830156  RH  047%=      5-min Rain = 0
KFLS 061610Z 21014KT 28/16 A3004 RMK A01 T02840156  RH  047%=      5-min Rain = 0
KFLS 061615Z 22013G18KT 29/16 A3004 RMK A01 T02900156  RH  045%=      5-min Rain = 0
KFLS 061620Z 21014KT 30/16 A3004 RMK A01 T02960156  RH  043%=      5-min Rain = 0
KFLS 061625Z 22017KT 30/15 A3004 RMK A01 T02980151  RH  042%=      5-min Rain = 0
KFLS 061630Z 21016G21KT 31/15 A3004 RMK A01 T03050153  RH  040%=      5-min Rain = 0
KFLS 061635Z 20015KT 31/15 A3004 RMK A01 T03070150  RH  039%=      5-min Rain = 0
KFLS 061640Z 19015G20KT 31/15 A3004 RMK A01 T03110151  RH  039%=      5-min Rain = 0
KFLS 061645Z 19015KT 31/15 A3004 RMK A01 T03070150  RH  039%=      5-min Rain = 0
KFLS 061650Z 20016KT 31/15 A3004 RMK A01 T03070148  RH  039%=      5-min Rain = 0
KFLS 061655Z 20017G22KT 31/15 A3004 RMK A01 T03070146  RH  038%=      5-min Rain = 0
KFLS 061700Z 20015G22KT 31/15 A3004 RMK A01 T03120147  RH  038%=      5-min Rain = 0
KFLS 061705Z 20015G20KT 31/15 A3004 RMK A01 T03110145  RH  037%=      5-min Rain = 0
KFLS 061710Z 20016KT 32/14 A3004 RMK A01 T03150143  RH  036%=      5-min Rain = 0
KFLS 061715Z 21017KT 32/14 A3003 RMK A01 T03160140  RH  035%=      5-min Rain = 0
KFLS 061720Z 21015KT 32/14 A3003 RMK A01 T03150142  RH  036%=      5-min Rain = 0
KFLS 061725Z 19015G21KT 32/14 A3003 RMK A01 T03210142  RH  035%=      5-min Rain = 0
KFLS 061730Z 21015G21KT 32/14 A3003 RMK A01 T03200140  RH  034%=      5-min Rain = 0
KFLS 061735Z 20015KT 32/14 A3003 RMK A01 T03240137  RH  033%=      5-min Rain = 0
KFLS 061740Z 20015KT 33/14 A3003 RMK A01 T03280140  RH  033%=      5-min Rain = 0
KFLS 061745Z 19015KT 33/14 A3003 RMK A01 T03310139  RH  032%=      5-min Rain = 0
KFLS 061750Z 20015KT 33/14 A3003 RMK A01 T03280136  RH  032%=      5-min Rain = 0
KFLS 061755Z 20016KT 32/13 A3002 RMK A01 T03220132  RH  032%=      5-min Rain = 0
KFLS 061800Z 21015KT 32/14 A3003 RMK A01 T03230136  RH  033%=      5-min Rain = 0
KFLS 061805Z 21015KT 33/13 A3003 RMK A01 T03280134  RH  032%=      5-min Rain = 0
KFLS 061810Z 21015KT 33/13 A3003 RMK A01 T03320131  RH  030%=      5-min Rain = 0
KFLS 061815Z 20015G20KT 33/13 A3002 RMK A01 T03300128  RH  030%=      5-min Rain = 0
KFLS 061820Z 20016G22KT 33/13 A3003 RMK A01 T03320126  RH  029%=      5-min Rain = 0
KFLS 061825Z 20014G19KT 33/13 A3002 RMK A01 T03310128  RH  030%=      5-min Rain = 0
KFLS 061830Z 20013G18KT 33/13 A3002 RMK A01 T03320127  RH  029%=      5-min Rain = 0
KFLS 061835Z 20013G19KT 34/13 A3002 RMK A01 T03380126  RH  028%=      5-min Rain = 0
KFLS 061840Z 20014KT 35/13 A3002 RMK A01 T03460126  RH  027%=      5-min Rain = 0
KFLS 061845Z 19015G20KT 35/13 A3002 RMK A01 T03450132  RH  028%=      5-min Rain = 0
KFLS 061850Z 20013G19KT 35/13 A3002 RMK A01 T03490128  RH  027%=      5-min Rain = 0
KFLS 061855Z 20010G17KT 35/13 A3002 RMK A01 T03470130  RH  028%=      5-min Rain = 0
KFLS 061900Z 20012KT 35/13 A3001 RMK A01 T03520127  RH  026%=      5-min Rain = 0
KFLS 061905Z 21012G18KT 35/13 A3001 RMK A01 T03540131  RH  027%=      5-min Rain = 0
KFLS 061910Z 20013G19KT 36/13 A3001 RMK A01 T03580127  RH  025%=      5-min Rain = 0
KFLS 061915Z 20015G20KT 36/12 A3001 RMK A01 T03580119  RH  024%=      5-min Rain = 0
KFLS 061920Z 18015G22KT 35/12 A3001 RMK A01 T03500117  RH  025%=      5-min Rain = 0
KFLS 061925Z 19015G22KT 35/11 A3001 RMK A01 T03530108  RH  023%=      5-min Rain = 0
KFLS 061930Z 20014KT 35/11 A30 RMK A01 T03540114  RH  024%=      5-min Rain = 0
KFLS 061935Z 21014G20KT 35/12 A30 RMK A01 T03520119  RH  025%=      5-min Rain = 0
KFLS 061940Z 21014KT 36/10 A30 RMK A01 T03600104  RH  022%=      5-min Rain = 0
KFLS 061945Z 18015G20KT 36/11 A30 RMK A01 T03630106  RH  022%=      5-min Rain = 0
KFLS 061950Z 18013KT 36/11 A30 RMK A01 T03600108  RH  022%=      5-min Rain = 0
KFLS 061955Z 19014G21KT 36/11 A30 RMK A01 T03600107  RH  022%=      5-min Rain = 0
KFLS 062000Z 19013KT 36/11 A30 RMK A01 T03610106  RH  022%=      5-min Rain = 0
KFLS 062005Z 19015G20KT 36/11 A30 RMK A01 T03620106  RH  022%=      5-min Rain = 0
KFLS 062010Z 18013G18KT 37/10 A30 RMK A01 T03660103  RH  021%=      5-min Rain = 0
KFLS 062015Z 19014G21KT 36/10 A30 RMK A01 T03630098  RH  020%=      5-min Rain = 0
KFLS 062020Z 18013G19KT 36/10 A2999 RMK A01 T03640101  RH  021%=      5-min Rain = 0
KFLS 062025Z 18014G21KT 36/10 A2999 RMK A01 T03620104  RH  021%=      5-min Rain = 0
KFLS 062030Z 18014G20KT 36/10 A2999 RMK A01 T03610101  RH  021%=      5-min Rain = 0
KFLS 062035Z 19010G19KT 36/10 A2999 RMK A01 T03620102  RH  021%=      5-min Rain = 0
KFLS 062040Z 19013G23KT 36/09 A2998 RMK A01 T03630094  RH  020%=      5-min Rain = 0
KFLS 062045Z 19017G25KT 37/09 A2998 RMK A01 T03650089  RH  019%=      5-min Rain = 0
KFLS 062050Z 18015G22KT 37/09 A2998 RMK A01 T03660088  RH  019%=      5-min Rain = 0
KFLS 062055Z 18016G22KT 36/09 A2998 RMK A01 T03630088  RH  019%=      5-min Rain = 0
KFLS 062100Z 20016G22KT 37/09 A2998 RMK A01 T03720092  RH  019%=      5-min Rain = 0
KFLS 062105Z 19013G18KT 37/09 A2997 RMK A01 T03720090  RH  018%=      5-min Rain = 0
KFLS 062110Z 17017G24KT 38/09 A2997 RMK A01 T03750088  RH  018%=      5-min Rain = 0
KFLS 062115Z 17018G24KT 38/09 A2997 RMK A01 T03770088  RH  018%=      5-min Rain = 0
KFLS 062120Z 18016G24KT 38/09 A2997 RMK A01 T03760087  RH  018%=      5-min Rain = 0
KFLS 062125Z 18018G23KT 37/09 A2997 RMK A01 T03720085  RH  018%=      5-min Rain = 0
KFLS 062130Z 18017G23KT 37/09 A2997 RMK A01 T03700087  RH  018%=      5-min Rain = 0
KFLS 062135Z 19016KT 38/09 A2996 RMK A01 T03820085  RH  017%=      5-min Rain = 0
KFLS 062140Z 19017G24KT 38/08 A2996 RMK A01 T03800083  RH  017%=      5-min Rain = 0
KFLS 062145Z 18016G21KT 37/08 A2996 RMK A01 T03680083  RH  018%=      5-min Rain = 0
KFLS 062150Z 18016G21KT 38/09 A2996 RMK A01 T03750086  RH  018%=      5-min Rain = 0
KFLS 062155Z 18018G23KT 38/09 A2996 RMK A01 T03800086  RH  017%=      5-min Rain = 0
KFLS 062200Z 18016KT 38/09 A2995 RMK A01 T03780087  RH  017%=      5-min Rain = 0
KFLS 062205Z 17016G22KT 38/09 A2995 RMK A01 T03760087  RH  018%=      5-min Rain = 0
KFLS 062210Z 17018G24KT 38/09 A2995 RMK A01 T03830087  RH  017%=      5-min Rain = 0
KFLS 062215Z 17018G24KT 38/09 A2995 RMK A01 T03790087  RH  017%=      5-min Rain = 0
KFLS 062220Z 17018G23KT 38/09 A2994 RMK A01 T03820086  RH  017%=      5-min Rain = 0
KFLS 062225Z 17018G24KT 38/08 A2994 RMK A01 T03800084  RH  017%=      5-min Rain = 0
KFLS 062230Z 17016KT 38/09 A2994 RMK A01 T03810085  RH  017%=      5-min Rain = 0
KFLS 062235Z 17016G24KT 38/09 A2994 RMK A01 T03820087  RH  017%=      5-min Rain = 0
KFLS 062240Z 17018G24KT 38/09 A2994 RMK A01 T03820086  RH  017%=      5-min Rain = 0
KFLS 062245Z 17017G25KT 38/09 A2994 RMK A01 T03770087  RH  017%=      5-min Rain = 0
KFLS 062250Z 17015G20KT 38/09 A2994 RMK A01 T03780090  RH  018%=      5-min Rain = 0
KFLS 062255Z 19016G22KT 38/09 A2994 RMK A01 T03780089  RH  018%=      5-min Rain = 0
KFLS 062300Z 18016KT 37/09 A2994 RMK A01 T03720088  RH  018%=      5-min Rain = 0
KFLS 062305Z 17017G22KT 37/09 A2994 RMK A01 T03710088  RH  018%=      5-min Rain = 0
KFLS 062310Z 18014G20KT 37/09 A2994 RMK A01 T03720089  RH  018%=      5-min Rain = 0
KFLS 062315Z 19017G24KT 38/09 A2994 RMK A01 T03760087  RH  018%=      5-min Rain = 0
KFLS 062320Z 18017G22KT 38/09 A2994 RMK A01 T03750089  RH  018%=      5-min Rain = 0
KFLS 062325Z 20016G22KT 38/09 A2994 RMK A01 T03760087  RH  018%=      5-min Rain = 0
KFLS 062330Z 18015G20KT 38/09 A2994 RMK A01 T03750089  RH  018%=      5-min Rain = 0
KFLS 062335Z 19014G22KT 38/09 A2993 RMK A01 T03760093  RH  018%=      5-min Rain = 0
KFLS 062340Z 16018G24KT 37/11 A2993 RMK A01 T03720105  RH  020%=      5-min Rain = 0
KFLS 062345Z 15019G26KT 37/11 A2993 RMK A01 T03680110  RH  022%=      5-min Rain = 0
KFLS 062350Z 16020G26KT 37/11 A2993 RMK A01 T03650111  RH  022%=      5-min Rain = 0
KFLS 062355Z 16018G25KT 36/11 A2993 RMK A01 T03590110  RH  023%=      5-min Rain = 0
KFLS 070000Z 16019G24KT 36/11 A2993 RMK A01 T03620112  RH  022%=      5-min Rain = 0
KFLS 070005Z 16017G25KT 36/11 A2993 RMK A01 T03590112  RH  023%=      5-min Rain = 0
KFLS 070010Z 16017G23KT 36/11 A2993 RMK A01 T03590111  RH  023%=      5-min Rain = 0
KFLS 070015Z 16017G24KT 36/11 A2993 RMK A01 T03580110  RH  023%=      5-min Rain = 0
KFLS 070020Z 16016KT 36/11 A2994 RMK A01 T03580112  RH  023%=      5-min Rain = 0
KFLS 070025Z 16017G23KT 35/11 A2994 RMK A01 T03540112  RH  023%=      5-min Rain = 0
KFLS 070030Z 16018G23KT 35/11 A2994 RMK A01 T03520109  RH  023%=      5-min Rain = 0
KFLS 070035Z 16017KT 35/11 A2994 RMK A01 T03500110  RH  024%=      5-min Rain = 0
KFLS 070040Z 16016G21KT 35/11 A2994 RMK A01 T03460112  RH  025%=      5-min Rain = 0
KFLS 070045Z 16014G19KT 34/11 A2994 RMK A01 T03440112  RH  025%=      5-min Rain = 0
KFLS 070050Z 16015G20KT 34/11 A2994 RMK A01 T03420112  RH  025%=      5-min Rain = 0
KFLS 070055Z 16014G19KT 34/11 A2994 RMK A01 T03400114  RH  026%=      5-min Rain = 0
KFLS 070100Z 16013KT 34/11 A2994 RMK A01 T03390113  RH  026%=      5-min Rain = 0
KFLS 070105Z 16013G18KT 34/11 A2994 RMK A01 T03370114  RH  026%=      5-min Rain = 0
KFLS 070110Z 16014G19KT 34/11 A2994 RMK A01 T03350114  RH  026%=      5-min Rain = 0
KFLS 070115Z 16013KT 34/11 A2995 RMK A01 T03350113  RH  026%=      5-min Rain = 0
KFLS 070120Z 16012G17KT 33/11 A2995 RMK A01 T03320114  RH  027%=      5-min Rain = 0
KFLS 070125Z 16012G17KT 33/11 A2995 RMK A01 T03290114  RH  027%=      5-min Rain = 0
KFLS 070130Z 17012KT 33/12 A2995 RMK A01 T03260115  RH  028%=      5-min Rain = 0
KFLS 070135Z 16012KT 32/12 A2995 RMK A01 T03240116  RH  028%=      5-min Rain = 0
KFLS 070140Z 16012KT 32/12 A2996 RMK A01 T03220117  RH  029%=      5-min Rain = 0
KFLS 070145Z 16013G19KT 32/12 A2996 RMK A01 T03210118  RH  029%=      5-min Rain = 0
KFLS 070150Z 16013KT 32/12 A2996 RMK A01 T03200119  RH  030%=      5-min Rain = 0
KFLS 070155Z 16014KT 32/12 A2996 RMK A01 T03190119  RH  030%=      5-min Rain = 0
KFLS 070200Z 16012G17KT 32/12 A2996 RMK A01 T03170118  RH  030%=      5-min Rain = 0
KFLS 070205Z 16012KT 31/12 A2996 RMK A01 T03140118  RH  031%=      5-min Rain = 0
KFLS 070210Z 16012KT 31/12 A2996 RMK A01 T03130119  RH  031%=      5-min Rain = 0
KFLS 070215Z 16012KT 31/12 A2996 RMK A01 T03110119  RH  031%=      5-min Rain = 0
KFLS 070220Z 16012KT 31/12 A2996 RMK A01 T03100118  RH  031%=      5-min Rain = 0
KFLS 070225Z 16012KT 31/12 A2996 RMK A01 T03090118  RH  032%=      5-min Rain = 0
KFLS 070230Z 16012KT 31/12 A2996 RMK A01 T03090118  RH  032%=      5-min Rain = 0
KFLS 070235Z 16011KT 31/12 A2997 RMK A01 T03070119  RH  032%=      5-min Rain = 0
KFLS 070240Z 17011KT 31/12 A2997 RMK A01 T03060119  RH  032%=      5-min Rain = 0
KFLS 070245Z 17012KT 30/12 A2997 RMK A01 T03040119  RH  033%=      5-min Rain = 0
KFLS 070250Z 18017G26KT 31/12 A2997 RMK A01 T03060119  RH  032%=      5-min Rain = 0
KFLS 070255Z 19015KT 31/12 A2997 RMK A01 T03060118  RH  032%=      5-min Rain = 0
KFLS 070300Z 20014KT 30/12 A2998 RMK A01 T03030118  RH  033%=      5-min Rain = 0
KFLS 070305Z 20012KT 30/12 A2998 RMK A01 T03010118  RH  033%=      5-min Rain = 0
KFLS 070310Z 20012KT 30/12 A2998 RMK A01 T02990117  RH  033%=      5-min Rain = 0
KFLS 070315Z 19012KT 30/12 A2998 RMK A01 T02990117  RH  033%=      5-min Rain = 0
KFLS 070320Z 19013KT 30/12 A2998 RMK A01 T02970118  RH  034%=      5-min Rain = 0
KFLS 070325Z 19012G20KT 30/12 A2998 RMK A01 T02950119  RH  034%=      5-min Rain = 0
KFLS 070330Z 19015G21KT 29/12 A2999 RMK A01 T02920121  RH  036%=      5-min Rain = 0
KFLS 070335Z 18016G23KT 29/12 A2999 RMK A01 T02910122  RH  036%=      5-min Rain = 0
KFLS 070340Z 18015G21KT 29/12 A2998 RMK A01 T02890122  RH  036%=      5-min Rain = 0
KFLS 070345Z 19015G20KT 29/12 A2998 RMK A01 T02890119  RH  036%=      5-min Rain = 0
KFLS 070350Z 19014G19KT 29/12 A2999 RMK A01 T02880118  RH  035%=      5-min Rain = 0
KFLS 070355Z 19015KT 29/12 A2999 RMK A01 T02890118  RH  035%=      5-min Rain = 0
KFLS 070400Z 18012KT 29/12 A2999 RMK A01 T02860118  RH  036%=      5-min Rain = 0
KFLS 070405Z 19011G17KT 28/12 A2999 RMK A01 T02830119  RH  037%=      5-min Rain = 0
KFLS 070410Z 19011KT 28/12 A2999 RMK A01 T02820119  RH  037%=      5-min Rain = 0
KFLS 070415Z 19010KT 28/12 A2998 RMK A01 T02790121  RH  038%=      5-min Rain = 0
KFLS 070420Z 20010KT 28/12 A2998 RMK A01 T02760122  RH  039%=      5-min Rain = 0
KFLS 070425Z 20009KT 27/12 A2998 RMK A01 T02730122  RH  040%=      5-min Rain = 0
KFLS 070430Z 20009KT 27/12 A2998 RMK A01 T02740122  RH  040%=      5-min Rain = 0
KFLS 070435Z 20008KT 27/12 A2999 RMK A01 T02730122  RH  040%=      5-min Rain = 0
KFLS 070440Z 20008KT 27/12 A2998 RMK A01 T02720123  RH  040%=      5-min Rain = 0
KFLS 070445Z 20007KT 27/12 A2999 RMK A01 T02690123  RH  041%=      5-min Rain = 0
KFLS 070450Z 21008KT 27/12 A2999 RMK A01 T02680123  RH  042%=      5-min Rain = 0
KFLS 070455Z 21007KT 27/12 A2999 RMK A01 T02710123  RH  041%=      5-min Rain = 0

Page generated in 0.0085 seconds.